Time;durP1;ratioP1;P1;durP2;ratioP2;P2;SDS_P1;SDS_P2;PMS_P1;PMS_P2;Temp;Humidity;BMP_temperature;BMP_pressure;BME280_temperature;BME280_humidity;BME280_pressure;Samples;Min_cycle;Max_cycle;Signal;HPM_P1;HPM_P2
2022/07/11 00:02:19;;;;;;;2.67;0.70;;;16.80;99.90;;;;;;5088338;28;20036;-51
2022/07/11 00:04:46;;;;;;;2.10;0.50;;;16.80;99.90;;;;;;5089492;28;20028;-51
2022/07/11 00:07:12;;;;;;;6.07;1.02;;;16.80;99.90;;;;;;5080014;28;20456;-49
2022/07/11 00:09:38;;;;;;;2.15;0.70;;;16.80;99.90;;;;;;5089199;28;20546;-51
2022/07/11 00:12:04;;;;;;;4.80;0.80;;;16.80;99.90;;;;;;5081769;28;20120;-50
2022/07/11 00:14:29;;;;;;;6.03;0.93;;;16.80;99.90;;;;;;5069655;28;20081;-52
2022/07/11 00:16:55;;;;;;;3.50;1.05;;;16.80;99.90;;;;;;5072925;28;20450;-50
2022/07/11 00:19:22;;;;;;;4.28;0.90;;;16.80;99.90;;;;;;5069130;28;20063;-51
2022/07/11 00:21:48;;;;;;;5.57;0.80;;;16.80;99.90;;;;;;5072108;28;20498;-46
2022/07/11 00:24:14;;;;;;;3.72;1.02;;;16.70;99.90;;;;;;5070013;28;20115;-52
2022/07/11 00:26:40;;;;;;;2.05;0.85;;;16.70;99.90;;;;;;5070209;28;20509;-52
2022/07/11 00:29:06;;;;;;;3.58;0.65;;;16.70;99.90;;;;;;5085502;28;20084;-50
2022/07/11 00:31:32;;;;;;;2.33;0.50;;;16.70;99.90;;;;;;5079675;28;20433;-50
2022/07/11 00:33:57;;;;;;;;;;;16.70;99.90;;;;;;5071477;28;20072;-48
2022/07/11 00:36:23;;;;;;;3.80;0.60;;;16.70;99.90;;;;;;5080268;28;19981;-51
2022/07/11 00:38:49;;;;;;;4.03;1.10;;;16.70;99.90;;;;;;5089939;28;20044;-50
2022/07/11 00:41:15;;;;;;;4.45;1.42;;;16.70;99.90;;;;;;5081703;28;20077;-50
2022/07/11 00:43:40;;;;;;;4.13;0.73;;;16.70;99.90;;;;;;5082364;28;20047;-52
2022/07/11 00:46:08;;;;;;;3.78;0.70;;;16.70;99.90;;;;;;5083159;28;20497;-51
2022/07/11 00:48:35;;;;;;;3.47;0.55;;;16.70;99.90;;;;;;5070563;28;20082;-51
2022/07/11 00:51:03;;;;;;;1.63;0.60;;;16.70;99.90;;;;;;5075127;28;20047;-52
2022/07/11 00:53:30;;;;;;;1.67;0.65;;;16.70;99.90;;;;;;5080345;28;20123;-49
2022/07/11 00:55:56;;;;;;;2.13;0.68;;;16.70;99.90;;;;;;5084720;28;20055;-49
2022/07/11 00:58:22;;;;;;;1.50;0.60;;;16.70;99.90;;;;;;5068530;28;20074;-48
2022/07/11 01:00:49;;;;;;;4.38;0.80;;;16.70;99.90;;;;;;5072227;28;20064;-50
2022/07/11 01:03:15;;;;;;;3.50;0.80;;;16.70;99.90;;;;;;5081959;28;20166;-50
2022/07/11 01:05:41;;;;;;;2.88;0.95;;;16.70;99.90;;;;;;5070700;28;20272;-50
2022/07/11 01:08:06;;;;;;;4.65;1.00;;;16.70;99.90;;;;;;5082319;28;20080;-46
2022/07/11 01:10:33;;;;;;;4.07;0.80;;;16.60;99.90;;;;;;5069414;28;20044;-50
2022/07/11 01:12:59;;;;;;;4.43;1.05;;;16.60;99.90;;;;;;5086090;28;20106;-50
2022/07/11 01:15:24;;;;;;;6.07;0.80;;;16.60;99.90;;;;;;5082537;28;20496;-49
2022/07/11 01:17:53;;;;;;;4.63;1.20;;;16.60;99.90;;;;;;5082658;28;20123;-50
2022/07/11 01:20:21;;;;;;;5.93;1.27;;;16.60;99.90;;;;;;5089888;28;20050;-46
2022/07/11 01:22:51;;;;;;;1.95;0.90;;;16.60;99.90;;;;;;5073111;28;20366;-52
2022/07/11 01:25:30;;;;;;;5.28;1.13;;;16.60;99.90;;;;;;5071368;28;20119;-50
2022/07/11 01:28:00;;;;;;;1.67;1.00;;;16.60;99.90;;;;;;5084860;28;20039;-48
2022/07/11 01:30:31;;;;;;;5.65;1.70;;;16.50;99.90;;;;;;5084727;28;20521;-49
2022/07/11 01:32:57;;;;;;;3.50;1.30;;;16.50;99.90;;;;;;5081959;28;20044;-50
2022/07/11 01:35:23;;;;;;;7.25;2.05;;;16.50;99.90;;;;;;5074857;28;20117;-47
2022/07/11 01:37:49;;;;;;;7.05;1.30;;;16.50;99.90;;;;;;5083347;28;20044;-51
2022/07/11 01:40:16;;;;;;;1.63;1.00;;;16.50;99.90;;;;;;5072045;28;20036;-52
2022/07/11 01:42:42;;;;;;;6.43;1.40;;;16.50;99.90;;;;;;5070057;28;20032;-48
2022/07/11 01:45:09;;;;;;;3.03;1.60;;;16.50;99.90;;;;;;5072539;28;20089;-47
2022/07/11 01:47:35;;;;;;;5.13;1.20;;;16.50;99.90;;;;;;5078560;28;20127;-51
2022/07/11 01:50:00;;;;;;;6.85;1.50;;;16.50;99.90;;;;;;5071869;28;20119;-49
2022/07/11 01:52:27;;;;;;;5.35;1.65;;;16.50;99.90;;;;;;5087449;28;20071;-48
2022/07/11 01:54:53;;;;;;;3.50;1.13;;;16.50;99.90;;;;;;5088810;28;20036;-50
2022/07/11 01:57:18;;;;;;;3.00;1.50;;;16.50;99.90;;;;;;5081112;28;20375;-52
2022/07/11 01:59:44;;;;;;;6.00;1.23;;;16.50;99.90;;;;;;5071819;28;20119;-50
2022/07/11 02:02:09;;;;;;;10.10;1.50;;;16.50;99.90;;;;;;5087205;28;20036;-46
2022/07/11 02:04:35;;;;;;;5.10;1.55;;;16.50;99.90;;;;;;5088842;28;20036;-48
2022/07/11 02:07:01;;;;;;;1.95;1.40;;;16.50;99.90;;;;;;5080386;28;20040;-53
2022/07/11 02:09:26;;;;;;;4.45;1.50;;;16.40;99.90;;;;;;5088596;28;20119;-50
2022/07/11 02:11:52;;;;;;;4.28;1.25;;;16.40;99.90;;;;;;5086658;28;20414;-47
2022/07/11 02:14:17;;;;;;;1.40;1.30;;;16.40;99.90;;;;;;5082936;28;20083;-51
2022/07/11 02:16:43;;;;;;;3.60;1.55;;;16.40;99.90;;;;;;5069495;28;20086;-51
2022/07/11 02:19:10;;;;;;;5.72;1.35;;;16.40;99.90;;;;;;5075470;28;20067;-49
2022/07/11 02:21:36;;;;;;;1.77;1.17;;;16.40;99.90;;;;;;5068853;28;20044;-46
2022/07/11 02:24:02;;;;;;;2.22;1.17;;;16.40;99.90;;;;;;5069573;28;20066;-50
2022/07/11 02:26:27;;;;;;;1.48;1.38;;;16.40;99.90;;;;;;5069454;28;20043;-50
2022/07/11 02:28:53;;;;;;;4.60;1.30;;;16.40;99.90;;;;;;5075975;28;20041;-48
2022/07/11 02:31:19;;;;;;;3.63;1.10;;;16.40;99.90;;;;;;5072362;28;20308;-49
2022/07/11 02:33:45;;;;;;;1.83;1.00;;;16.40;99.90;;;;;;5077166;28;20024;-50
2022/07/11 02:36:11;;;;;;;2.83;1.77;;;16.30;99.90;;;;;;5089817;28;20527;-48
2022/07/11 02:38:37;;;;;;;3.38;1.65;;;16.30;99.90;;;;;;5074613;28;20059;-49
2022/07/11 02:41:03;;;;;;;4.78;1.88;;;16.30;99.90;;;;;;5085994;28;20438;-51
2022/07/11 02:43:28;;;;;;;1.75;1.50;;;16.30;99.90;;;;;;5088801;28;20115;-51
2022/07/11 02:45:55;;;;;;;2.60;1.88;;;16.30;99.90;;;;;;5083654;28;20032;-52
2022/07/11 02:48:21;;;;;;;2.08;1.83;;;16.30;99.90;;;;;;5079003;28;20043;-46
2022/07/11 02:50:47;;;;;;;4.57;2.60;;;16.30;99.90;;;;;;5074895;28;20040;-49
2022/07/11 02:53:13;;;;;;;;;;;16.30;99.90;;;;;;5089670;28;20405;-50
2022/07/11 02:55:38;;;;;;;3.85;2.95;;;16.30;99.90;;;;;;5082806;28;19917;-50
2022/07/11 02:58:04;;;;;;;4.65;3.60;;;16.30;99.90;;;;;;5076009;28;20516;-46
2022/07/11 03:00:30;;;;;;;5.25;3.15;;;16.30;99.90;;;;;;5076230;28;20040;-50
2022/07/11 03:02:56;;;;;;;4.10;2.38;;;16.30;99.90;;;;;;5072010;28;20060;-48
2022/07/11 03:05:21;;;;;;;5.28;2.40;;;16.20;99.90;;;;;;5072202;28;20079;-50
2022/07/11 03:07:47;;;;;;;5.05;3.17;;;16.30;99.90;;;;;;5072152;28;20051;-47
2022/07/11 03:10:12;;;;;;;8.77;3.03;;;16.30;99.90;;;;;;5083063;28;20072;-51
2022/07/11 03:12:38;;;;;;;3.80;2.75;;;16.20;99.90;;;;;;5070135;28;20045;-49
2022/07/11 03:15:05;;;;;;;9.63;3.17;;;16.20;99.90;;;;;;5086545;28;20047;-52
2022/07/11 03:17:31;;;;;;;3.67;2.58;;;16.30;99.90;;;;;;5078031;28;20036;-50
2022/07/11 03:19:57;;;;;;;3.42;2.53;;;16.20;99.90;;;;;;5087016;28;20066;-48
2022/07/11 03:22:23;;;;;;;4.95;2.17;;;16.20;99.90;;;;;;5091247;28;20116;-50
2022/07/11 03:24:50;;;;;;;4.10;2.85;;;16.20;99.90;;;;;;5089729;28;20039;-50
2022/07/11 03:27:16;;;;;;;5.18;2.42;;;16.20;99.90;;;;;;5091556;28;20203;-51
2022/07/11 03:29:42;;;;;;;6.43;2.65;;;16.20;99.90;;;;;;5075807;28;20627;-50
2022/07/11 03:32:09;;;;;;;8.85;3.40;;;16.20;99.90;;;;;;5080046;28;20051;-46
2022/07/11 03:34:35;;;;;;;4.95;2.83;;;16.20;99.90;;;;;;5071940;28;20040;-50
2022/07/11 03:37:00;;;;;;;5.10;2.80;;;16.20;99.90;;;;;;5082493;28;20089;-47
2022/07/11 03:39:27;;;;;;;2.97;2.50;;;16.20;99.90;;;;;;5080227;28;20246;-46
2022/07/11 03:41:52;;;;;;;;;;;16.20;99.90;;;;;;5076662;28;20294;-48
2022/07/11 03:44:18;;;;;;;7.47;3.15;;;16.20;99.90;;;;;;5078632;28;20301;-50
2022/07/11 03:46:44;;;;;;;3.15;2.10;;;16.10;99.90;;;;;;5084455;28;20074;-50
2022/07/11 03:49:10;;;;;;;4.70;2.97;;;16.10;99.90;;;;;;5085749;28;20532;-47
2022/07/11 03:51:36;;;;;;;4.07;3.05;;;16.10;99.90;;;;;;5072974;28;20107;-50
2022/07/11 03:54:02;;;;;;;4.38;2.58;;;16.10;99.90;;;;;;5089890;28;20111;-49
2022/07/11 03:56:27;;;;;;;3.22;2.30;;;16.10;99.90;;;;;;5078514;28;20513;-47
2022/07/11 03:58:53;;;;;;;6.75;2.72;;;16.10;99.90;;;;;;5071043;28;20033;-48
2022/07/11 04:01:21;;;;;;;5.55;3.20;;;16.20;99.90;;;;;;5080173;28;20039;-47
2022/07/11 04:03:47;;;;;;;4.63;2.42;;;16.10;99.90;;;;;;5075187;28;20118;-48
2022/07/11 04:06:14;;;;;;;7.05;2.70;;;16.20;99.90;;;;;;5078282;28;20097;-48
2022/07/11 04:08:39;;;;;;;2.53;2.28;;;16.10;99.90;;;;;;5075702;28;20048;-50
2022/07/11 04:11:05;;;;;;;7.35;3.10;;;16.10;99.90;;;;;;5076588;28;20516;-49
2022/07/11 04:13:31;;;;;;;3.80;2.90;;;16.10;99.90;;;;;;5085890;28;20032;-46
2022/07/11 04:15:57;;;;;;;3.08;2.60;;;16.20;99.90;;;;;;5084454;28;20032;-51
2022/07/11 04:18:23;;;;;;;6.25;3.40;;;16.20;99.90;;;;;;5071785;28;20043;-49
2022/07/11 04:20:49;;;;;;;3.30;2.22;;;16.20;99.90;;;;;;5072488;28;20036;-50
2022/07/11 04:23:15;;;;;;;;;;;16.10;99.90;;;;;;5071963;28;20095;-48
2022/07/11 04:25:41;;;;;;;4.55;3.10;;;16.20;99.90;;;;;;5072268;28;20398;-52
2022/07/11 04:28:06;;;;;;;2.13;2.03;;;16.10;99.90;;;;;;5084589;28;20098;-50
2022/07/11 04:30:32;;;;;;;4.50;2.60;;;16.10;99.90;;;;;;5084494;28;20076;-48
2022/07/11 04:32:59;;;;;;;3.97;2.83;;;16.20;99.90;;;;;;5089503;28;20076;-49
2022/07/11 04:35:26;;;;;;;3.53;2.20;;;16.10;99.90;;;;;;5079331;28;20141;-48
2022/07/11 04:37:52;;;;;;;5.22;2.10;;;16.10;99.90;;;;;;5079744;28;20039;-46
2022/07/11 04:40:18;;;;;;;3.58;2.22;;;16.10;99.90;;;;;;5081061;28;20078;-46
2022/07/11 04:42:43;;;;;;;4.75;2.42;;;16.20;99.90;;;;;;5070900;28;20520;-50
2022/07/11 04:45:09;;;;;;;3.05;2.75;;;16.20;99.90;;;;;;5070892;28;20086;-51
2022/07/11 04:47:35;;;;;;;3.67;1.98;;;16.20;99.90;;;;;;5070004;28;20074;-47
2022/07/11 04:50:01;;;;;;;4.13;2.20;;;16.20;99.90;;;;;;5080579;28;20051;-50
2022/07/11 04:52:27;;;;;;;3.22;2.40;;;16.20;99.90;;;;;;5089944;28;20370;-50
2022/07/11 04:54:54;;;;;;;3.22;2.15;;;16.20;99.90;;;;;;5087957;28;20052;-51
2022/07/11 04:57:19;;;;;;;2.08;1.85;;;16.20;99.90;;;;;;5070577;28;20055;-51
2022/07/11 04:59:45;;;;;;;3.53;1.20;;;16.20;99.90;;;;;;5073504;28;20028;-50
2022/07/11 05:02:10;;;;;;;2.25;1.20;;;16.20;99.90;;;;;;5070027;28;20064;-47
2022/07/11 05:04:36;;;;;;;4.15;1.27;;;16.30;99.90;;;;;;5069205;28;20079;-51
2022/07/11 05:07:02;;;;;;;4.03;1.30;;;16.30;99.90;;;;;;5076380;28;20066;-47
2022/07/11 05:09:27;;;;;;;2.45;1.85;;;16.30;99.90;;;;;;5077820;28;20074;-52
2022/07/11 05:11:53;;;;;;;2.95;1.80;;;16.30;99.90;;;;;;5072385;28;20041;-49
2022/07/11 05:14:19;;;;;;;4.68;1.85;;;16.30;99.90;;;;;;5073977;28;20123;-47
2022/07/11 05:16:45;;;;;;;6.30;1.98;;;16.30;99.90;;;;;;5083458;28;20048;-51
2022/07/11 05:19:10;;;;;;;3.78;2.45;;;16.30;99.90;;;;;;5087790;28;20127;-47
2022/07/11 05:21:36;;;;;;;5.60;3.05;;;16.30;99.90;;;;;;5087603;28;20040;-49
2022/07/11 05:24:02;;;;;;;5.30;2.08;;;16.30;99.90;;;;;;5073190;28;20024;-49
2022/07/11 05:26:27;;;;;;;3.90;2.20;;;16.30;99.90;;;;;;5082274;28;20119;-52
2022/07/11 05:28:53;;;;;;;3.95;2.22;;;16.30;99.90;;;;;;5071577;28;20525;-50
2022/07/11 05:31:18;;;;;;;2.60;1.77;;;16.30;99.90;;;;;;5074134;28;20452;-46
2022/07/11 05:33:44;;;;;;;2.03;1.55;;;16.40;99.90;;;;;;5075563;28;20088;-48
2022/07/11 05:36:09;;;;;;;1.95;1.40;;;16.40;99.90;;;;;;5071888;28;20041;-51
2022/07/11 05:38:35;;;;;;;2.65;1.10;;;16.40;99.90;;;;;;5087926;28;20492;-50
2022/07/11 05:41:01;;;;;;;2.15;1.23;;;16.40;99.90;;;;;;5087741;28;20024;-51
2022/07/11 05:43:28;;;;;;;;;;;16.40;99.90;;;;;;5071636;28;20041;-48
2022/07/11 05:45:54;;;;;;;1.88;1.15;;;16.40;99.90;;;;;;5075770;28;20405;-49
2022/07/11 05:48:19;;;;;;;5.30;1.58;;;16.50;99.90;;;;;;5082764;28;20036;-52
2022/07/11 05:50:45;;;;;;;0.95;0.50;;;16.50;99.90;;;;;;5069529;28;20117;-46
2022/07/11 05:53:11;;;;;;;0.88;0.60;;;16.50;99.90;;;;;;5068443;28;20682;-46
2022/07/11 05:55:36;;;;;;;1.38;0.82;;;16.50;99.90;;;;;;5070033;28;20041;-51
2022/07/11 05:58:02;;;;;;;1.30;0.60;;;16.50;99.90;;;;;;5068970;28;20037;-48
2022/07/11 06:00:28;;;;;;;1.02;0.50;;;16.50;99.90;;;;;;5070608;28;20066;-52
2022/07/11 06:02:54;;;;;;;0.90;0.50;;;16.50;99.90;;;;;;5071332;28;20086;-49
2022/07/11 06:05:20;;;;;;;1.23;0.40;;;16.50;99.90;;;;;;5092075;28;20481;-45
2022/07/11 06:10:31;;;;;;;1.58;0.30;;;16.50;99.90;;;;;;5091467;28;20059;-50
2022/07/11 06:12:57;;;;;;;0.40;0.30;;;16.60;99.90;;;;;;5092143;28;20501;-47
2022/07/11 06:15:23;;;;;;;0.75;0.47;;;16.60;99.90;;;;;;5091446;28;20097;-51
2022/07/11 06:17:49;;;;;;;0.80;0.30;;;16.60;99.90;;;;;;5085771;28;20074;-51
2022/07/11 06:20:14;;;;;;;0.77;0.30;;;16.60;99.90;;;;;;5081362;28;20040;-47
2022/07/11 06:22:40;;;;;;;1.73;0.30;;;16.60;99.90;;;;;;5075676;28;20047;-50
2022/07/11 06:25:06;;;;;;;0.40;0.20;;;16.60;99.90;;;;;;5073027;28;20047;-51
2022/07/11 06:27:31;;;;;;;0.73;0.20;;;16.70;99.90;;;;;;5073220;28;20037;-52
2022/07/11 06:29:57;;;;;;;1.63;0.40;;;16.70;99.90;;;;;;5092954;28;20416;-47
2022/07/11 06:32:23;;;;;;;1.25;0.30;;;16.70;99.90;;;;;;5086211;28;20566;-51
2022/07/11 06:34:49;;;;;;;2.40;0.30;;;16.80;99.90;;;;;;5072505;28;20109;-51
2022/07/11 06:37:15;;;;;;;1.52;0.45;;;16.80;99.90;;;;;;5084293;28;20492;-47
2022/07/11 06:39:40;;;;;;;117.43;7.35;;;16.80;99.90;;;;;;5079303;28;20035;-47
2022/07/11 06:42:06;;;;;;;7.93;0.82;;;16.90;99.90;;;;;;5086432;28;20123;-47
2022/07/11 06:44:32;;;;;;;0.73;0.25;;;16.90;99.90;;;;;;5081892;28;20462;-48
2022/07/11 06:46:58;;;;;;;0.38;0.20;;;16.90;99.90;;;;;;5072169;28;20043;-51
2022/07/11 06:49:24;;;;;;;0.90;0.30;;;16.90;99.90;;;;;;5062080;28;20646;-52
2022/07/11 06:51:49;;;;;;;0.30;0.20;;;16.90;99.90;;;;;;5067947;28;20405;-50
2022/07/11 06:54:15;;;;;;;1.95;0.30;;;16.90;99.90;;;;;;5070832;28;20397;-50
2022/07/11 06:56:40;;;;;;;2.53;0.20;;;16.90;99.90;;;;;;5076667;28;20028;-51
2022/07/11 06:59:06;;;;;;;0.30;0.20;;;17.00;99.90;;;;;;5066727;28;20509;-48
2022/07/11 07:01:31;;;;;;;4.85;0.45;;;17.00;99.90;;;;;;5066490;28;20039;-49
2022/07/11 07:03:57;;;;;;;1.30;0.20;;;17.00;99.90;;;;;;5070015;28;20486;-51
2022/07/11 07:06:22;;;;;;;0.63;0.20;;;17.00;99.90;;;;;;5067630;28;20079;-46
2022/07/11 07:08:48;;;;;;;1.75;0.13;;;17.10;99.90;;;;;;5068284;28;20040;-47
2022/07/11 07:11:14;;;;;;;0.28;0.10;;;17.20;99.90;;;;;;5072364;28;20068;-51
2022/07/11 07:13:39;;;;;;;1.33;0.10;;;17.10;99.90;;;;;;5070029;28;20036;-47
2022/07/11 07:16:06;;;;;;;0.65;0.20;;;17.20;99.90;;;;;;5074659;28;20040;-47
2022/07/11 07:18:32;;;;;;;0.20;0.10;;;17.20;99.90;;;;;;5066787;28;20036;-50
2022/07/11 07:20:58;;;;;;;0.03;0.00;;;17.20;99.90;;;;;;5070800;28;20510;-47
2022/07/11 07:23:24;;;;;;;2.38;0.40;;;17.20;99.90;;;;;;5082173;28;20422;-47
2022/07/11 07:25:50;;;;;;;0.43;0.10;;;17.30;99.90;;;;;;5074137;28;20112;-53
2022/07/11 07:28:15;;;;;;;0.22;0.15;;;17.20;99.90;;;;;;5072407;28;20127;-51
2022/07/11 07:30:41;;;;;;;0.75;0.13;;;17.20;99.90;;;;;;5070582;28;20596;-48
2022/07/11 07:33:07;;;;;;;0.28;0.10;;;17.20;99.90;;;;;;5070973;28;20079;-48
2022/07/11 07:35:33;;;;;;;2.10;0.30;;;17.20;99.90;;;;;;5066142;28;20048;-48
2022/07/11 07:38:00;;;;;;;1.75;0.20;;;17.20;99.90;;;;;;5075267;28;20040;-50
2022/07/11 07:40:26;;;;;;;2.20;0.30;;;17.20;99.90;;;;;;5070639;28;20036;-47
2022/07/11 07:42:52;;;;;;;0.82;0.73;;;17.20;99.90;;;;;;5051226;28;20489;-48
2022/07/11 07:45:17;;;;;;;1.58;0.20;;;17.20;99.90;;;;;;5075908;28;20039;-49
2022/07/11 07:47:43;;;;;;;0.47;0.20;;;17.20;99.90;;;;;;5077680;28;20040;-46
2022/07/11 07:50:09;;;;;;;0.30;0.13;;;17.30;99.90;;;;;;5068141;28;20044;-48
2022/07/11 07:52:34;;;;;;;0.20;0.10;;;17.30;99.90;;;;;;5067444;28;20731;-48
2022/07/11 07:55:00;;;;;;;0.40;0.20;;;17.40;99.90;;;;;;5073300;28;20064;-46
2022/07/11 07:57:26;;;;;;;0.40;0.10;;;17.40;99.90;;;;;;5073738;28;20445;-48
2022/07/11 08:01:34;;;;;;;0.85;0.25;;;17.40;99.90;;;;;;5077538;28;20474;-50
2022/07/11 08:02:37;;;;;;;0.90;0.20;;;17.40;99.90;;;;;;5071897;28;20049;-47
2022/07/11 08:05:03;;;;;;;1.25;0.17;;;17.40;99.90;;;;;;5079914;28;20378;-48
2022/07/11 08:07:28;;;;;;;0.38;0.20;;;17.50;99.90;;;;;;5077782;28;20098;-50
2022/07/11 08:09:54;;;;;;;0.77;0.15;;;17.50;99.90;;;;;;5083128;28;20512;-49
2022/07/11 08:12:19;;;;;;;1.48;0.32;;;17.50;99.90;;;;;;5074843;28;20036;-51
2022/07/11 08:14:45;;;;;;;0.30;0.10;;;17.60;99.90;;;;;;5071235;28;20256;-47
2022/07/11 08:17:10;;;;;;;1.67;0.40;;;17.60;99.90;;;;;;5073012;28;20071;-47
2022/07/11 08:19:36;;;;;;;2.10;0.20;;;17.60;99.90;;;;;;5067356;28;20037;-50
2022/07/11 08:22:02;;;;;;;0.75;0.20;;;17.60;99.90;;;;;;5072869;28;20375;-49
2022/07/11 08:24:28;;;;;;;0.28;0.10;;;17.60;99.90;;;;;;5066378;28;20133;-51
2022/07/11 08:26:54;;;;;;;1.30;0.20;;;17.60;99.90;;;;;;5072666;28;20075;-52
2022/07/11 08:29:19;;;;;;;0.30;0.10;;;17.60;99.90;;;;;;5074400;28;20031;-46
2022/07/11 08:31:45;;;;;;;1.25;0.10;;;17.60;99.90;;;;;;5063295;28;20056;-46
2022/07/11 08:34:10;;;;;;;0.47;0.10;;;17.60;99.90;;;;;;5072058;28;20028;-48
2022/07/11 08:36:36;;;;;;;1.65;0.10;;;17.70;99.90;;;;;;5074166;28;20097;-49
2022/07/11 08:39:02;;;;;;;1.27;0.10;;;17.70;99.90;;;;;;5079015;28;20536;-51
2022/07/11 08:41:28;;;;;;;0.55;0.30;;;17.70;99.90;;;;;;5080453;28;20028;-48
2022/07/11 08:43:54;;;;;;;0.10;0.10;;;17.80;99.90;;;;;;5078287;28;20309;-46
2022/07/11 08:46:19;;;;;;;0.60;0.20;;;17.80;99.90;;;;;;5080281;28;20032;-50
2022/07/11 08:48:46;;;;;;;0.30;0.10;;;17.80;99.90;;;;;;5068342;28;20043;-47
2022/07/11 08:51:12;;;;;;;2.40;0.10;;;17.90;99.90;;;;;;5073005;28;20032;-46
2022/07/11 08:53:41;;;;;;;0.38;0.10;;;17.90;99.90;;;;;;5082032;28;20040;-51
2022/07/11 08:56:15;;;;;;;0.60;0.20;;;18.00;99.90;;;;;;5071590;28;20413;-48
2022/07/11 08:58:45;;;;;;;0.20;0.00;;;18.00;99.90;;;;;;5079527;28;20088;-46
2022/07/11 09:01:14;;;;;;;0.15;0.00;;;18.00;99.90;;;;;;5069134;28;20060;-48
2022/07/11 09:03:41;;;;;;;0.08;0.00;;;18.00;99.90;;;;;;5074923;28;20133;-47
2022/07/11 09:06:06;;;;;;;0.30;0.03;;;18.00;99.90;;;;;;5067349;28;20413;-50
2022/07/11 09:08:32;;;;;;;0.20;0.00;;;18.00;99.90;;;;;;5075431;28;20040;-49
2022/07/11 09:10:59;;;;;;;0.85;0.10;;;18.00;99.90;;;;;;5078406;28;20044;-47
2022/07/11 09:13:28;;;;;;;;;;;18.10;99.90;;;;;;5065589;28;20054;-51
2022/07/11 09:16:01;;;;;;;0.20;0.00;;;18.10;99.90;;;;;;5068901;28;19920;-48
2022/07/11 09:18:26;;;;;;;0.10;0.00;;;18.10;99.90;;;;;;5070387;28;20045;-51
2022/07/11 09:26:44;;;;;;;0.30;0.05;;;18.30;99.90;;;;;;5075724;28;20040;-50
2022/07/11 09:29:12;;;;;;;0.60;0.22;;;18.40;99.90;;;;;;5071942;28;20040;-48
2022/07/11 09:31:39;;;;;;;0.10;0.10;;;18.50;99.90;;;;;;5067360;28;20552;-49
2022/07/11 09:34:08;;;;;;;0.17;0.10;;;18.50;99.90;;;;;;5069090;28;20513;-47
2022/07/11 09:36:36;;;;;;;0.08;0.00;;;18.60;99.90;;;;;;5066428;28;20037;-50
2022/07/11 09:39:03;;;;;;;0.13;0.05;;;18.60;99.90;;;;;;5084826;28;20413;-46
2022/07/11 09:41:36;;;;;;;0.47;0.10;;;18.60;99.90;;;;;;5087397;28;20036;-47
2022/07/11 09:44:11;;;;;;;0.30;0.10;;;18.60;99.90;;;;;;5074051;28;20071;-48
2022/07/11 09:46:38;;;;;;;0.75;0.05;;;18.60;99.90;;;;;;5076323;28;20053;-46
2022/07/11 09:49:04;;;;;;;0.15;0.00;;;18.60;99.90;;;;;;5076424;28;20898;-48
2022/07/11 09:51:32;;;;;;;0.32;0.08;;;18.60;99.90;;;;;;5087497;28;20043;-49
2022/07/11 09:53:58;;;;;;;1.65;0.10;;;18.50;99.90;;;;;;5074172;28;20422;-51
2022/07/11 09:56:25;;;;;;;0.28;0.10;;;18.50;99.90;;;;;;5074249;28;20089;-46
2022/07/11 09:58:59;;;;;;;0.20;0.00;;;18.50;99.90;;;;;;5069188;28;20083;-50
2022/07/11 10:01:27;;;;;;;0.47;0.10;;;18.50;99.90;;;;;;5070603;28;20040;-50
2022/07/11 10:03:52;;;;;;;0.20;0.00;;;18.50;99.90;;;;;;5069006;28;20579;-51
2022/07/11 10:06:18;;;;;;;0.15;0.00;;;18.50;99.90;;;;;;5078377;28;20606;-46
2022/07/11 10:08:43;;;;;;;0.35;0.17;;;18.50;99.90;;;;;;5078161;28;20046;-47
2022/07/11 10:11:11;;;;;;;0.30;0.08;;;18.60;99.90;;;;;;5074846;28;20047;-48
2022/07/11 10:13:37;;;;;;;0.13;0.00;;;18.60;99.90;;;;;;5067520;28;20048;-46
2022/07/11 10:16:10;;;;;;;0.20;0.00;;;18.60;99.90;;;;;;5080850;28;20044;-46
2022/07/11 10:18:43;;;;;;;0.05;0.00;;;18.60;99.90;;;;;;5073682;28;20428;-47
2022/07/11 10:21:29;;;;;;;0.03;0.00;;;18.60;99.90;;;;;;5075123;28;20082;-49
2022/07/11 10:24:04;;;;;;;0.15;0.00;;;18.60;99.90;;;;;;5070213;28;20046;-49
2022/07/11 10:26:40;;;;;;;0.00;0.00;;;18.70;99.90;;;;;;5074526;28;20423;-46
2022/07/11 10:29:14;;;;;;;0.22;0.00;;;18.70;99.90;;;;;;5076311;28;20041;-51
2022/07/11 10:31:40;;;;;;;0.73;0.05;;;18.70;99.90;;;;;;5073661;28;20087;-48
2022/07/11 10:34:15;;;;;;;0.05;0.00;;;18.70;99.90;;;;;;5068727;28;20036;-48
2022/07/11 10:36:43;;;;;;;0.20;0.00;;;18.80;99.90;;;;;;5075180;28;20036;-50
2022/07/11 10:39:16;;;;;;;1.75;0.00;;;18.80;99.90;;;;;;5074383;28;20040;-48
2022/07/11 10:41:42;;;;;;;0.15;0.10;;;18.80;99.90;;;;;;5076645;28;20096;-47
2022/07/11 10:44:08;;;;;;;1.17;0.10;;;18.80;99.90;;;;;;5067812;28;20048;-48
2022/07/11 10:46:35;;;;;;;0.30;0.10;;;18.80;99.90;;;;;;5071690;28;20036;-47
2022/07/11 10:49:09;;;;;;;16.63;0.73;;;18.80;99.90;;;;;;5074358;28;20075;-49
2022/07/11 10:51:47;;;;;;;0.38;0.10;;;18.70;99.90;;;;;;5068245;28;20387;-48
2022/07/11 10:54:42;;;;;;;0.65;0.03;;;18.80;99.90;;;;;;5070245;28;20592;-46
2022/07/11 10:57:26;;;;;;;0.20;0.10;;;18.80;99.90;;;;;;5075993;28;20050;-51
2022/07/11 10:59:55;;;;;;;0.82;0.13;;;18.80;99.90;;;;;;5076788;28;20066;-47
2022/07/11 11:02:21;;;;;;;0.95;0.10;;;18.70;99.90;;;;;;5069238;28;20399;-46
2022/07/11 11:04:49;;;;;;;0.10;0.00;;;18.80;99.90;;;;;;5074191;28;20130;-50
2022/07/11 11:07:39;;;;;;;0.10;0.00;;;18.80;99.90;;;;;;5073375;28;20048;-46
2022/07/11 11:10:29;;;;;;;0.10;0.00;;;18.90;99.90;;;;;;5072697;28;20029;-47
2022/07/11 11:13:05;;;;;;;0.10;0.00;;;18.90;99.90;;;;;;5068090;28;20051;-47
2022/07/11 11:15:37;;;;;;;1.30;0.10;;;19.00;99.90;;;;;;5067785;28;20058;-47
2022/07/11 11:18:41;;;;;;;0.35;0.00;;;19.00;99.90;;;;;;5069138;28;20303;-46
2022/07/11 11:21:07;;;;;;;0.35;0.20;;;19.10;99.90;;;;;;5021625;28;20589;-48
2022/07/11 11:23:33;;;;;;;0.10;0.00;;;19.10;99.90;;;;;;5062956;28;20041;-49
2022/07/11 11:26:07;;;;;;;0.43;0.10;;;19.20;99.90;;;;;;5076537;28;20637;-47
2022/07/11 11:28:33;;;;;;;0.22;0.10;;;19.20;99.90;;;;;;5069246;28;20357;-47
2022/07/11 11:31:02;;;;;;;0.73;0.08;;;19.20;99.90;;;;;;5073387;28;20040;-47
2022/07/11 11:33:33;;;;;;;0.25;0.00;;;19.20;99.90;;;;;;5070753;28;20040;-50
2022/07/11 11:36:03;;;;;;;0.98;0.10;;;19.30;99.90;;;;;;5073422;28;20455;-48
2022/07/11 11:38:30;;;;;;;0.30;0.10;;;19.30;99.90;;;;;;5066902;28;20389;-47
2022/07/11 11:40:55;;;;;;;0.52;0.10;;;19.30;99.90;;;;;;5065098;28;20559;-46
2022/07/11 11:43:22;;;;;;;0.43;0.10;;;19.30;99.90;;;;;;5068927;28;20075;-49
2022/07/11 11:45:53;;;;;;;0.75;0.10;;;19.40;99.90;;;;;;5073767;28;20028;-48
2022/07/11 11:48:35;;;;;;;0.10;0.00;;;19.40;99.90;;;;;;5071074;28;20086;-48
2022/07/11 11:51:06;;;;;;;0.25;0.08;;;19.50;99.90;;;;;;5078494;28;20083;-46
2022/07/11 11:53:46;;;;;;;0.60;0.10;;;19.50;99.90;;;;;;5070829;28;20501;-51
2022/07/11 11:56:13;;;;;;;0.10;0.10;;;19.50;99.90;;;;;;5069473;28;20028;-48
2022/07/11 11:58:39;;;;;;;0.35;0.00;;;19.60;99.90;;;;;;5072518;28;20141;-49
2022/07/11 12:01:05;;;;;;;0.63;0.10;;;19.70;99.90;;;;;;5071299;28;20067;-47
2022/07/11 12:03:50;;;;;;;0.52;0.10;;;19.80;99.90;;;;;;5074223;28;20064;-46
2022/07/11 12:06:16;;;;;;;1.05;0.10;;;19.90;99.90;;;;;;5071953;28;20036;-50
2022/07/11 12:08:42;;;;;;;;;;;19.90;99.90;;;;;;5084327;28;20247;-47
2022/07/11 12:11:13;;;;;;;0.20;0.10;;;20.00;99.90;;;;;;5076745;28;19916;-50
2022/07/11 12:13:40;;;;;;;1.88;0.10;;;20.00;99.90;;;;;;5067052;28;20413;-51
2022/07/11 12:18:57;;;;;;;0.75;0.30;;;20.00;99.90;;;;;;5083472;28;20048;-49
2022/07/11 12:21:23;;;;;;;;;;;19.90;99.90;;;;;;5081429;28;20036;-51
2022/07/11 12:23:49;;;;;;;0.00;0.00;;;19.90;99.90;;;;;;5071815;28;20637;-49
2022/07/11 12:26:15;;;;;;;1.30;0.10;;;19.80;99.90;;;;;;5071294;28;20036;-47
2022/07/11 12:29:18;;;;;;;0.10;0.10;;;19.80;99.90;;;;;;5084224;28;20055;-52
2022/07/11 12:31:56;;;;;;;0.20;0.10;;;19.80;99.90;;;;;;5081477;28;20118;-47
2022/07/11 12:34:41;;;;;;;2.95;0.10;;;19.80;99.90;;;;;;5084303;28;20040;-51
2022/07/11 12:37:09;;;;;;;2.28;0.10;;;19.80;99.90;;;;;;5069108;28;20536;-50
2022/07/11 12:39:39;;;;;;;3.03;0.10;;;19.80;99.90;;;;;;5065543;28;20404;-52
2022/07/11 12:42:26;;;;;;;0.45;0.10;;;19.90;99.90;;;;;;5066801;28;20036;-50
2022/07/11 12:44:59;;;;;;;1.98;0.03;;;19.90;99.90;;;;;;5065519;28;20127;-51
2022/07/11 12:47:29;;;;;;;0.10;0.10;;;20.00;99.90;;;;;;5085183;28;20085;-47
2022/07/11 12:49:56;;;;;;;0.30;0.10;;;20.10;99.90;;;;;;5072546;28;20451;-51
2022/07/11 12:52:22;;;;;;;0.73;0.10;;;20.10;99.90;;;;;;5067142;28;20097;-50
2022/07/11 12:54:49;;;;;;;1.17;0.20;;;20.20;99.90;;;;;;5071511;28;20416;-46
2022/07/11 12:57:20;;;;;;;2.45;0.10;;;20.20;99.90;;;;;;5085534;28;20076;-51
2022/07/11 12:59:46;;;;;;;2.65;0.20;;;20.20;99.90;;;;;;5076038;28;20082;-47
2022/07/11 13:02:13;;;;;;;2.00;0.10;;;20.30;99.90;;;;;;5079221;28;20032;-46